Impacts TAF Board
For situational awareness. Not to be used for flight planning purposes.
IDs:

KORD - Chicago/O'Hare Intl, IL, US

Issued at 0846 UTC 17 Feb 2019
Updated at 0945 UTC 17 Feb 2019
Potential Impact None Slight Moderate High
Time0851Z 17/10Z 17/11Z 17/12Z 17/13Z 17/14Z 17/15Z 17/16Z 17/17Z 17/18Z 17/19Z 17/20Z 17/21Z 17/22Z>>
Type OBS PRVL PRVL PRVL PRVL PRVL PRVL PRVL PRVL PRVL PRVL PRVL PRVL PRVL
VIS 10 >6 >6 3 3 3 3 3 1 1 1 1 1 1
CIG 19 18 18 16 16 16 16 16 10 10 10 10 10 10
Cover OVC OVC OVC OVC OVC OVC OVC OVC OVC OVC OVC OVC OVC OVC
FltCat MVFR MVFR MVFR MVFR MVFR MVFR MVFR MVFR IFR IFR IFR IFR IFR IFR
WX -- VCSH VCSH -SHSN -SHSN -SHSN -SHSN -SHSN -SN -SN -SN -SN -SN -SN
WDir 80 80 80 80 80 80 80 80 70 70 70 70 70 70
WSpd 10 11 11 12 12 12 12 12 13 13 13 13 13 13
WGst -- -- -- 18 18 18 18 18 19 19 19 19 19 19
Raw TAF
KORD 170846Z 1709/1812 08011KT P6SM VCSH OVC018
  FM171130 08012G18KT 3SM -SHSN OVC016
  FM171700 07013G19KT 1SM -SN SCT007 OVC010
  FM180000 04010KT 1 1/2SM -SN BR OVC010
  FM180500 01008KT 4SM -SHSN BKN015 OVC025


Raw METAR
KORD 170851Z 08010KT 10SM OVC019 M04/M08 A2994 RMK AO2 SLP148 T10391078 58003
KORD 170751Z 09007KT 10SM OVC019 M04/M08 A2996 RMK AO2 SLP154 T10391078
KORD 170651Z 10012KT 10SM OVC018 M04/M08 A2999 RMK AO2 SLP162 T10441078

METAR Board
Radar Display
Forecast Discussion
For situational awareness. Not to be used for flight planning purposes.